createdAt,value
2024-02-22T00:00:12.918Z,15.28
2024-02-22T00:05:16.771Z,15.34
2024-02-22T00:10:20.412Z,15.33
2024-02-22T00:15:25.844Z,15.28
2024-02-22T00:20:29.230Z,15.29
2024-02-22T00:25:32.758Z,15.25
2024-02-22T00:30:37.741Z,15.25
2024-02-22T00:35:40.827Z,15.18
2024-02-22T00:40:44.279Z,15.18
2024-02-22T00:45:49.561Z,15.26
2024-02-22T00:50:53.155Z,15.22
2024-02-22T00:55:56.601Z,15.21
2024-02-22T01:01:01.577Z,15.12
2024-02-22T01:06:05.364Z,15.03
2024-02-22T01:11:08.967Z,15.02
2024-02-22T01:16:13.919Z,15.09
2024-02-22T01:21:17.053Z,15.21
2024-02-22T01:26:20.946Z,15.26
2024-02-22T01:31:25.755Z,15.20
2024-02-22T01:36:29.097Z,15.16
2024-02-22T01:41:32.503Z,15.19
2024-02-22T01:46:37.694Z,15.15
2024-02-22T01:51:41.285Z,15.16
2024-02-22T01:56:44.663Z,15.24
2024-02-22T02:01:52.387Z,15.23
2024-02-22T02:06:56.027Z,15.15
2024-02-22T02:11:59.474Z,15.28
2024-02-22T02:17:04.402Z,15.30
2024-02-22T02:22:11.495Z,15.30
2024-02-22T02:27:17.934Z,15.28
2024-02-22T02:32:21.351Z,15.24
2024-02-22T02:37:24.718Z,15.28
2024-02-22T02:42:29.537Z,15.27
2024-02-22T02:47:32.596Z,15.22
2024-02-22T02:52:36.086Z,15.21
2024-02-22T02:57:40.996Z,15.22
2024-02-22T03:02:44.161Z,15.22
2024-02-22T03:07:47.522Z,15.20
2024-02-22T03:12:53.182Z,15.19
2024-02-22T03:17:56.559Z,15.16
2024-02-22T03:23:00.630Z,15.22
2024-02-22T03:28:07.790Z,15.25
2024-02-22T03:33:11.389Z,15.21
2024-02-22T03:38:14.922Z,15.22
2024-02-22T03:43:19.782Z,15.26
2024-02-22T03:48:22.917Z,15.28
2024-02-22T03:53:26.356Z,15.29
2024-02-22T03:58:31.224Z,15.20
2024-02-22T04:03:35.453Z,15.28
2024-02-22T04:08:38.895Z,15.38
2024-02-22T04:13:43.930Z,15.38
2024-02-22T04:18:47.482Z,15.47
2024-02-22T04:23:51.001Z,15.42
2024-02-22T04:28:55.851Z,15.42
2024-02-22T04:33:59.000Z,15.39
2024-02-22T04:39:02.591Z,15.39
2024-02-22T04:44:08.226Z,15.40
2024-02-22T04:49:11.703Z,15.41
2024-02-22T04:54:15.525Z,15.38
2024-02-22T04:59:20.389Z,15.37
2024-02-22T05:04:23.461Z,15.33
2024-02-22T05:09:26.824Z,15.36
2024-02-22T05:14:31.640Z,15.37
2024-02-22T05:19:34.736Z,15.38
2024-02-22T05:24:38.131Z,15.30
2024-02-22T05:29:42.984Z,15.28
2024-02-22T05:34:46.110Z,15.40
2024-02-22T05:39:49.577Z,15.46
2024-02-22T05:44:54.874Z,15.44
2024-02-22T05:49:58.467Z,15.49
2024-02-22T05:55:02.055Z,15.45
2024-02-22T06:00:08.750Z,15.27
2024-02-22T06:05:13.011Z,15.17
2024-02-22T06:10:16.666Z,15.23
2024-02-22T06:15:21.611Z,15.17
2024-02-22T06:20:25.119Z,14.96
2024-02-22T06:25:29.305Z,14.93
2024-02-22T06:30:34.119Z,14.87
2024-02-22T06:35:37.823Z,14.91
2024-02-22T06:40:50.626Z,14.90
2024-02-22T06:45:55.970Z,14.83
2024-02-22T06:51:00.578Z,14.73
2024-02-22T06:56:04.059Z,14.60
2024-02-22T07:01:08.992Z,14.63
2024-02-22T07:06:13.409Z,14.57
2024-02-22T07:11:17.016Z,14.52
2024-02-22T07:16:22.121Z,14.44
2024-02-22T07:21:25.602Z,14.43
2024-02-22T07:26:29.078Z,14.41
2024-02-22T07:31:34.000Z,14.40
2024-02-22T07:36:37.103Z,14.38
2024-02-22T07:41:44.769Z,14.45
2024-02-22T07:46:49.655Z,14.46
2024-02-22T07:51:58.075Z,14.49
2024-02-22T07:57:05.636Z,14.59
2024-02-22T08:02:12.041Z,14.69
2024-02-22T08:07:16.554Z,14.70
2024-02-22T08:12:20.259Z,14.73
2024-02-22T08:17:25.316Z,14.79
2024-02-22T08:22:28.802Z,14.85
2024-02-22T08:27:32.247Z,14.86
2024-02-22T08:32:37.281Z,14.94
2024-02-22T08:37:41.111Z,14.99
2024-02-22T08:42:44.569Z,14.93
2024-02-22T08:47:49.422Z,15.00
2024-02-22T08:52:52.661Z,14.94
2024-02-22T08:57:58.705Z,15.03
2024-02-22T09:03:05.461Z,15.18
2024-02-22T09:08:09.846Z,15.32
2024-02-22T09:13:13.336Z,15.33
2024-02-22T09:18:19.126Z,15.51
2024-02-22T09:23:23.270Z,15.80
2024-02-22T09:28:27.178Z,15.83
2024-02-22T09:33:32.117Z,15.88
2024-02-22T09:38:37.225Z,15.87
2024-02-22T09:43:40.936Z,15.80
2024-02-22T09:48:46.673Z,15.70
2024-02-22T09:53:51.902Z,15.73
2024-02-22T09:58:56.272Z,15.76
2024-02-22T10:04:11.462Z,15.79
2024-02-22T10:09:15.829Z,15.80
2024-02-22T10:14:19.376Z,15.86
2024-02-22T10:19:24.770Z,15.89
2024-02-22T10:24:29.162Z,15.81
2024-02-22T10:29:32.776Z,15.67
2024-02-22T10:34:38.763Z,15.65
2024-02-22T10:39:43.138Z,15.76
2024-02-22T10:44:47.567Z,15.81
2024-02-22T10:49:57.143Z,15.81
2024-02-22T10:55:07.741Z,16.01
2024-02-22T11:00:15.195Z,15.99
2024-02-22T11:05:20.139Z,15.99
2024-02-22T11:10:24.125Z,15.87
2024-02-22T11:15:36.244Z,15.90
2024-02-22T11:20:41.644Z,15.85
2024-02-22T11:25:45.336Z,15.82
2024-02-22T11:30:49.380Z,15.89
2024-02-22T11:35:57.150Z,15.80
2024-02-22T11:41:05.866Z,15.84
2024-02-22T11:46:09.374Z,15.90
2024-02-22T11:51:15.158Z,15.87
2024-02-22T11:56:18.752Z,15.92
2024-02-22T12:01:22.275Z,15.98
2024-02-22T12:06:27.798Z,15.99
2024-02-22T12:11:31.966Z,16.03
2024-02-22T12:16:41.117Z,16.04
2024-02-22T12:21:49.208Z,16.11
2024-02-22T12:26:54.238Z,16.24
2024-02-22T12:32:04.591Z,15.64
2024-02-22T12:37:09.665Z,15.22
2024-02-22T12:42:13.151Z,15.13
2024-02-22T12:47:17.012Z,15.12
2024-02-22T12:52:22.366Z,14.89
2024-02-22T12:57:25.854Z,14.74
2024-02-22T13:02:29.433Z,14.63
2024-02-22T13:07:34.340Z,14.57
2024-02-22T13:12:37.593Z,14.70
2024-02-22T13:17:41.155Z,14.71
2024-02-22T13:22:46.937Z,14.63
2024-02-22T13:27:50.364Z,14.63
2024-02-22T13:32:56.714Z,14.45
2024-02-22T13:38:01.651Z,14.38
2024-02-22T13:43:05.086Z,14.45
2024-02-22T13:48:12.944Z,14.38
2024-02-22T13:53:18.301Z,14.51
2024-02-22T13:58:21.971Z,14.68
2024-02-22T14:03:25.482Z,14.50
2024-02-22T14:08:30.701Z,14.55
2024-02-22T14:13:36.853Z,14.46
2024-02-22T14:18:40.503Z,14.45
2024-02-22T14:23:48.011Z,14.26
2024-02-22T14:28:53.246Z,14.20
2024-02-22T14:33:57.231Z,14.21
2024-02-22T14:39:02.124Z,14.12
2024-02-22T14:44:05.827Z,14.20
2024-02-22T14:49:09.610Z,14.27
2024-02-22T14:54:14.655Z,14.23
2024-02-22T14:59:18.564Z,14.31
2024-02-22T15:04:25.185Z,14.45
2024-02-22T15:09:30.065Z,14.50
2024-02-22T15:14:33.205Z,14.49
2024-02-22T15:19:36.910Z,14.46
2024-02-22T15:24:41.906Z,14.52
2024-02-22T15:29:45.898Z,15.35
2024-02-22T15:34:49.469Z,15.72
2024-02-22T15:39:54.442Z,15.34
2024-02-22T15:44:57.958Z,14.68
2024-02-22T15:50:04.113Z,14.62
2024-02-22T15:55:10.167Z,14.61
2024-02-22T16:00:14.685Z,14.48
2024-02-22T16:05:18.108Z,14.32
2024-02-22T16:10:23.528Z,14.16
2024-02-22T16:15:27.433Z,14.14
2024-02-22T16:20:30.897Z,14.08
2024-02-22T16:25:35.817Z,14.08
2024-02-22T16:30:39.234Z,14.11
2024-02-22T16:35:42.649Z,14.11
2024-02-22T16:40:48.039Z,14.01
2024-02-22T16:45:51.898Z,13.84
2024-02-22T16:50:55.297Z,13.62
2024-02-22T16:56:01.911Z,13.35
2024-02-22T17:01:06.285Z,13.32
2024-02-22T17:06:12.285Z,13.17
2024-02-22T17:11:17.275Z,13.26
2024-02-22T17:16:20.463Z,13.14
2024-02-22T17:21:24.988Z,13.18
2024-02-22T17:26:29.828Z,13.13
2024-02-22T17:31:33.425Z,13.16
2024-02-22T17:36:36.919Z,13.15
2024-02-22T17:41:41.825Z,12.95
2024-02-22T17:46:44.992Z,12.94
2024-02-22T17:51:53.574Z,12.76
2024-02-22T17:57:00.982Z,12.77
2024-02-22T18:02:06.200Z,12.82
2024-02-22T18:07:10.169Z,12.82
2024-02-22T18:12:17.156Z,12.83
2024-02-22T18:17:20.673Z,12.77
2024-02-22T18:22:25.526Z,12.67
2024-02-22T18:27:33.318Z,12.58
2024-02-22T18:32:38.126Z,12.55
2024-02-22T18:37:42.361Z,12.49
2024-02-22T18:42:50.232Z,12.38
2024-02-22T18:47:54.989Z,12.37
2024-02-22T18:52:59.961Z,12.31
2024-02-22T18:58:04.825Z,12.22
2024-02-22T19:03:11.771Z,12.21
2024-02-22T19:08:15.290Z,12.14
2024-02-22T19:13:20.277Z,12.11
2024-02-22T19:18:23.704Z,12.09
2024-02-22T19:23:27.218Z,12.05
2024-02-22T19:28:32.518Z,11.97
2024-02-22T19:33:36.347Z,11.90
2024-02-22T19:38:42.917Z,11.76
2024-02-22T19:43:49.129Z,11.38
2024-02-22T19:48:54.573Z,11.25
2024-02-22T19:53:58.296Z,11.03
2024-02-22T19:59:03.979Z,10.96
2024-02-22T20:04:07.529Z,11.04
2024-02-22T20:09:11.022Z,11.12
2024-02-22T20:14:16.882Z,11.27
2024-02-22T20:19:20.427Z,11.37
2024-02-22T20:24:23.904Z,11.55
2024-02-22T20:29:28.814Z,11.51
2024-02-22T20:34:32.673Z,11.56
2024-02-22T20:39:36.658Z,11.52
2024-02-22T20:44:42.016Z,11.36
2024-02-22T20:49:45.978Z,11.16
2024-02-22T20:54:49.680Z,11.11
2024-02-22T20:59:54.545Z,10.91
2024-02-22T21:04:58.267Z,10.71
2024-02-22T21:10:02.222Z,10.66
2024-02-22T21:15:08.999Z,10.84
2024-02-22T21:20:13.739Z,10.80
2024-02-22T21:25:17.721Z,10.92
2024-02-22T21:30:22.534Z,10.89
2024-02-22T21:35:26.075Z,11.01
2024-02-22T21:40:29.839Z,10.96
2024-02-22T21:45:34.691Z,11.11
2024-02-22T21:50:38.628Z,11.11
2024-02-22T21:55:42.474Z,11.04
2024-02-22T22:00:47.351Z,11.12
2024-02-22T22:05:50.799Z,11.09
2024-02-22T22:10:54.902Z,11.05
2024-02-22T22:15:59.736Z,10.99
2024-02-22T22:21:17.016Z,11.09
2024-02-22T22:26:29.301Z,11.25
2024-02-22T22:31:34.510Z,11.17
2024-02-22T22:36:37.894Z,11.29
2024-02-22T22:41:41.323Z,11.14
2024-02-22T22:46:46.210Z,10.79
2024-02-22T22:51:49.790Z,10.76
2024-02-22T22:56:56.497Z,10.74
2024-02-22T23:02:01.449Z,10.65
2024-02-22T23:07:05.247Z,10.46
2024-02-22T23:12:09.696Z,10.37
2024-02-22T23:17:14.667Z,10.39
2024-02-22T23:22:18.092Z,10.30
2024-02-22T23:27:21.548Z,10.11
2024-02-22T23:32:26.450Z,10.16
2024-02-22T23:37:29.906Z,10.54
2024-02-22T23:42:33.345Z,10.50
2024-02-22T23:47:38.218Z,10.50
2024-02-22T23:52:41.664Z,10.53
2024-02-22T23:57:45.078Z,10.56
